createdAt,value
2022-08-14T00:03:29.485Z,0.00
2022-08-14T00:08:44.944Z,0.00
2022-08-14T00:13:27.790Z,0.00
2022-08-14T00:18:30.409Z,0.00
2022-08-14T00:23:29.104Z,0.00
2022-08-14T00:28:32.958Z,0.00
2022-08-14T00:33:51.754Z,0.00
2022-08-14T00:38:32.029Z,0.00
2022-08-14T00:43:31.680Z,0.00
2022-08-14T00:48:34.723Z,0.00
2022-08-14T00:53:32.112Z,0.00
2022-08-14T00:58:33.361Z,0.00
2022-08-14T01:03:32.644Z,0.00
2022-08-14T01:08:57.768Z,0.00
2022-08-14T01:13:43.080Z,0.00
2022-08-14T01:18:34.823Z,0.00
2022-08-14T01:23:46.475Z,0.00
2022-08-14T01:28:56.552Z,0.00
2022-08-14T01:33:52.211Z,0.00
2022-08-14T01:38:38.809Z,0.00
2022-08-14T01:43:36.766Z,0.00
2022-08-14T01:48:38.865Z,0.00
2022-08-14T01:53:38.494Z,0.00
2022-08-14T01:58:57.270Z,0.00
2022-08-14T02:03:40.260Z,0.00
2022-08-14T02:08:52.381Z,0.00
2022-08-14T02:13:40.440Z,0.00
2022-08-14T02:18:41.308Z,0.00
2022-08-14T02:23:40.190Z,0.00
2022-08-14T02:28:57.862Z,0.00
2022-08-14T02:33:39.782Z,0.00
2022-08-14T02:38:39.722Z,0.00
2022-08-14T02:43:48.573Z,0.00
2022-08-14T02:49:01.490Z,0.00
2022-08-14T02:53:42.356Z,0.00
2022-08-14T02:58:41.783Z,0.00
2022-08-14T03:03:41.520Z,0.00
2022-08-14T03:08:45.201Z,0.00
2022-08-14T03:13:43.231Z,0.00
2022-08-14T03:18:43.768Z,0.00
2022-08-14T03:23:42.994Z,0.00
2022-08-14T03:28:44.439Z,0.00
2022-08-14T03:33:51.796Z,0.00
2022-08-14T03:39:12.462Z,0.00
2022-08-14T03:43:46.670Z,0.00
2022-08-14T03:48:46.612Z,4.00
2022-08-14T03:53:46.575Z,16.00
2022-08-14T03:58:49.701Z,32.00
2022-08-14T04:03:48.586Z,68.00
2022-08-14T04:08:48.537Z,152.00
2022-08-14T04:13:49.314Z,276.00
2022-08-14T04:18:49.307Z,448.00
2022-08-14T04:23:57.167Z,656.00
2022-08-14T04:29:09.145Z,880.00
2022-08-14T04:33:50.532Z,1164.00
2022-08-14T04:38:53.971Z,1468.00
2022-08-14T04:43:54.074Z,1796.00
2022-08-14T04:48:55.399Z,2148.00
2022-08-14T04:53:53.098Z,2440.00
2022-08-14T04:58:54.208Z,2672.00
2022-08-14T05:03:56.306Z,2888.00
2022-08-14T05:09:00.095Z,2908.00
2022-08-14T05:14:43.383Z,3056.00
2022-08-14T05:19:19.124Z,3032.00
2022-08-14T05:23:57.405Z,3120.00
2022-08-14T05:28:59.306Z,3244.00
2022-08-14T05:33:58.492Z,3324.00
2022-08-14T05:39:00.613Z,3516.00
2022-08-14T05:44:01.010Z,3520.00
2022-08-14T05:49:00.205Z,3712.00
2022-08-14T05:54:11.446Z,3696.00
2022-08-14T05:59:02.368Z,4056.00
2022-08-14T06:04:04.413Z,4340.00
2022-08-14T06:09:06.249Z,4372.00
2022-08-14T06:14:12.269Z,4672.00
2022-08-14T06:19:05.137Z,4732.00
2022-08-14T06:24:04.956Z,4888.00
2022-08-14T06:29:05.901Z,4788.00
2022-08-14T06:35:09.652Z,4772.00
2022-08-14T06:39:09.982Z,4852.00
2022-08-14T06:44:04.869Z,5024.00
2022-08-14T06:49:05.977Z,5208.00
2022-08-14T06:54:08.514Z,5296.00
2022-08-14T06:59:07.629Z,5140.00
2022-08-14T07:04:12.729Z,5220.00
2022-08-14T07:09:10.027Z,5352.00
2022-08-14T07:14:09.882Z,5304.00
2022-08-14T07:19:09.019Z,5332.00
2022-08-14T07:24:22.050Z,5452.00
2022-08-14T07:29:11.131Z,5600.00
2022-08-14T07:34:12.141Z,5588.00
2022-08-14T07:39:13.424Z,5484.00
2022-08-14T07:44:32.351Z,5464.00
2022-08-14T07:49:17.600Z,5428.00
2022-08-14T07:54:16.440Z,5452.00
2022-08-14T07:59:13.672Z,5440.00
2022-08-14T08:04:18.930Z,5456.00
2022-08-14T08:09:16.823Z,5552.00
2022-08-14T08:14:17.176Z,5672.00
2022-08-14T08:19:17.740Z,5684.00
2022-08-14T08:24:19.714Z,5680.00
2022-08-14T08:29:17.767Z,5716.00
2022-08-14T08:34:20.463Z,5732.00
2022-08-14T08:39:22.793Z,5768.00
2022-08-14T08:44:32.023Z,5676.00
2022-08-14T08:49:22.291Z,5380.00
2022-08-14T08:54:26.554Z,5504.00
2022-08-14T08:59:30.895Z,5604.00
2022-08-14T09:04:25.255Z,5552.00
2022-08-14T09:09:30.481Z,5528.00
2022-08-14T09:14:25.053Z,5528.00
2022-08-14T09:19:28.226Z,5532.00
2022-08-14T09:24:28.220Z,5800.00
2022-08-14T09:29:28.796Z,5964.00
2022-08-14T09:34:28.042Z,6164.00
2022-08-14T09:39:32.541Z,6004.00
2022-08-14T09:44:27.938Z,5868.00
2022-08-14T09:49:30.068Z,5992.00
2022-08-14T09:54:29.183Z,6184.00
2022-08-14T09:59:33.494Z,6176.00
2022-08-14T10:04:46.049Z,6372.00
2022-08-14T10:09:34.807Z,6188.00
2022-08-14T10:14:35.347Z,6156.00
2022-08-14T10:19:31.125Z,6124.00
2022-08-14T10:24:37.149Z,6152.00
2022-08-14T10:29:33.029Z,6140.00
2022-08-14T10:34:33.453Z,6068.00
2022-08-14T10:39:31.803Z,5936.00
2022-08-14T10:44:33.143Z,5776.00
2022-08-14T10:49:34.281Z,5700.00
2022-08-14T10:54:40.210Z,6084.00
2022-08-14T10:59:39.169Z,5872.00
2022-08-14T11:04:37.461Z,5548.00
2022-08-14T11:09:41.987Z,5628.00
2022-08-14T11:14:37.171Z,5668.00
2022-08-14T11:19:37.145Z,5760.00
2022-08-14T11:24:50.516Z,6128.00
2022-08-14T11:29:38.181Z,6644.00
2022-08-14T11:34:39.139Z,6636.00
2022-08-14T11:39:38.430Z,6860.00
2022-08-14T11:44:45.624Z,7448.00
2022-08-14T11:49:41.524Z,7256.00
2022-08-14T11:54:41.889Z,7224.00
2022-08-14T11:59:44.135Z,7120.00
2022-08-14T12:04:41.622Z,7336.00
2022-08-14T12:09:43.137Z,6580.00
2022-08-14T12:14:44.375Z,6860.00
2022-08-14T12:19:42.369Z,7092.00
2022-08-14T12:24:43.583Z,6756.00
2022-08-14T12:29:43.470Z,6420.00
2022-08-14T12:34:45.610Z,6332.00
2022-08-14T12:39:44.768Z,6992.00
2022-08-14T12:44:46.132Z,6560.00
2022-08-14T12:49:48.527Z,6892.00
2022-08-14T12:55:01.613Z,7132.00
2022-08-14T12:59:49.612Z,6744.00
2022-08-14T13:04:50.800Z,7340.00
2022-08-14T13:09:52.153Z,7196.00
2022-08-14T13:14:51.257Z,7048.00
2022-08-14T13:19:52.593Z,7004.00
2022-08-14T13:24:53.734Z,7216.00
2022-08-14T13:29:54.798Z,7268.00
2022-08-14T13:34:54.565Z,7384.00
2022-08-14T13:40:00.816Z,7580.00
2022-08-14T13:44:57.011Z,7704.00
2022-08-14T13:49:58.495Z,7860.00
2022-08-14T13:54:59.600Z,8052.00
2022-08-14T13:59:58.711Z,8176.00
2022-08-14T14:04:59.822Z,8256.00
2022-08-14T14:10:03.675Z,8412.00
2022-08-14T14:15:04.858Z,8924.00
2022-08-14T14:20:02.997Z,8564.00
2022-08-14T14:25:03.664Z,8368.00
2022-08-14T14:30:04.759Z,8240.00
2022-08-14T14:35:05.709Z,8220.00
2022-08-14T14:40:54.524Z,8360.00
2022-08-14T14:45:04.736Z,8784.00
2022-08-14T14:50:04.982Z,8804.00
2022-08-14T14:55:06.100Z,9844.00
2022-08-14T15:00:06.292Z,8872.00
2022-08-14T15:05:08.852Z,8240.00
2022-08-14T15:10:27.323Z,8492.00
2022-08-14T15:15:09.536Z,10116.00
2022-08-14T15:20:17.255Z,8160.00
2022-08-14T15:25:10.630Z,9232.00
2022-08-14T15:30:11.791Z,11140.00
2022-08-14T15:35:11.719Z,10024.00
2022-08-14T15:40:16.460Z,8696.00
2022-08-14T15:45:14.053Z,7732.00
2022-08-14T15:50:14.012Z,7068.00
2022-08-14T15:55:14.795Z,8504.00
2022-08-14T16:00:37.881Z,9592.00
2022-08-14T16:05:16.304Z,8708.00
2022-08-14T16:10:29.140Z,7712.00
2022-08-14T16:15:17.134Z,7296.00
2022-08-14T16:20:42.055Z,6776.00
2022-08-14T16:25:18.123Z,5884.00
2022-08-14T16:30:20.760Z,5408.00
2022-08-14T16:35:17.567Z,5256.00
2022-08-14T16:40:16.666Z,5640.00
2022-08-14T16:45:17.798Z,5316.00
2022-08-14T16:50:42.948Z,4680.00
2022-08-14T16:55:19.915Z,3784.00
2022-08-14T17:00:28.284Z,3500.00
2022-08-14T17:05:22.003Z,3220.00
2022-08-14T17:10:27.930Z,3032.00
2022-08-14T17:15:23.078Z,2680.00
2022-08-14T17:20:54.556Z,2424.00
2022-08-14T17:25:24.119Z,2232.00
2022-08-14T17:30:32.157Z,2064.00
2022-08-14T17:35:24.126Z,1904.00
2022-08-14T17:40:24.098Z,1724.00
2022-08-14T17:45:27.060Z,1524.00
2022-08-14T17:50:59.367Z,1304.00
2022-08-14T17:56:01.591Z,1092.00
2022-08-14T18:00:27.499Z,880.00
2022-08-14T18:06:09.799Z,680.00
2022-08-14T18:10:52.118Z,504.00
2022-08-14T18:15:35.497Z,348.00
2022-08-14T18:21:42.152Z,224.00
2022-08-14T18:25:29.157Z,156.00
2022-08-14T18:30:32.073Z,116.00
2022-08-14T18:35:46.322Z,84.00
2022-08-14T18:40:34.563Z,52.00
2022-08-14T18:45:29.458Z,28.00
2022-08-14T18:50:31.758Z,12.00
2022-08-14T18:55:30.872Z,4.00
2022-08-14T19:00:32.713Z,0.00
2022-08-14T19:05:33.699Z,0.00
2022-08-14T19:10:37.363Z,0.00
2022-08-14T19:15:32.807Z,0.00
2022-08-14T19:20:37.754Z,0.00
2022-08-14T19:25:33.780Z,0.00
2022-08-14T19:30:33.106Z,0.00
2022-08-14T19:35:48.936Z,0.00
2022-08-14T19:40:35.326Z,0.00
2022-08-14T19:45:33.882Z,0.00
2022-08-14T19:50:40.286Z,0.00
2022-08-14T19:55:36.380Z,0.00
2022-08-14T20:00:35.794Z,0.00
2022-08-14T20:05:43.009Z,0.00
2022-08-14T20:11:04.631Z,0.00
2022-08-14T20:16:00.111Z,0.00
2022-08-14T20:20:35.787Z,0.00
2022-08-14T20:25:36.679Z,0.00
2022-08-14T20:30:36.436Z,0.00
2022-08-14T20:35:41.892Z,0.00
2022-08-14T20:40:35.111Z,0.00
2022-08-14T20:45:34.926Z,0.00
2022-08-14T20:50:44.814Z,0.00
2022-08-14T20:55:36.998Z,0.00
2022-08-14T21:00:38.519Z,0.00
2022-08-14T21:05:40.040Z,0.00
2022-08-14T21:10:44.018Z,0.00
2022-08-14T21:15:37.738Z,0.00
2022-08-14T21:20:36.118Z,0.00
2022-08-14T21:25:38.327Z,0.00
2022-08-14T21:30:51.349Z,0.00
2022-08-14T21:35:41.779Z,0.00
2022-08-14T21:40:42.832Z,0.00
2022-08-14T21:45:40.223Z,0.00
2022-08-14T21:51:02.208Z,0.00
2022-08-14T21:55:43.107Z,0.00
2022-08-14T22:00:43.743Z,0.00
2022-08-14T22:05:45.928Z,0.00
2022-08-14T22:10:44.661Z,0.00
2022-08-14T22:15:43.857Z,0.00
2022-08-14T22:20:45.506Z,0.00
2022-08-14T22:25:44.586Z,0.00
2022-08-14T22:30:45.010Z,0.00
2022-08-14T22:35:46.805Z,0.00
2022-08-14T22:41:04.771Z,0.00
2022-08-14T22:45:55.713Z,0.00
2022-08-14T22:50:49.206Z,0.00
2022-08-14T22:55:47.765Z,0.00
2022-08-14T23:00:46.341Z,0.00
2022-08-14T23:05:52.669Z,0.00
2022-08-14T23:10:48.427Z,0.00
2022-08-14T23:15:47.854Z,0.00
2022-08-14T23:20:49.204Z,0.00
2022-08-14T23:26:00.575Z,0.00
2022-08-14T23:30:51.364Z,0.00
2022-08-14T23:35:59.246Z,0.00
2022-08-14T23:40:51.217Z,0.00
2022-08-14T23:45:52.441Z,0.00
2022-08-14T23:50:53.406Z,0.00
2022-08-14T23:55:54.506Z,0.00
